• Join FlightAware (Why Join?)
  • Login
  • US Flag 
12:36AM EDT


 

Airport Tracker/Info


-or-


 

Live Flight TrackerFlight Track Log ✈ XOJ552 ✈ 09-May-2013 ✈ KJZI - KTEB

Flight Track Log - Related Links

Times and Time Zones

All times are in EDT time to prevent confusion due to time zone crossing. See the XOJ552 flight status page for this flight to view local times or setup timezone preferences in your user account.

Time Position Orientation Groundspeed Altitude Reporting Facility
EDT Latitude Longitude Course Direction KTS MPH feet Rate Location/Type
09:14PM 32.7497 -80.1139 14° North 242 278 6,400  Level Jacksonville Center
09:16PM 32.9006 -80.0375 23° Northeast 258 297 14,800 3,960 Climbing Jacksonville Center
09:17PM 32.9875 -80.0100 15° North 282 325 18,400 3,300 Climbing Jacksonville Center
09:18PM 33.3498 -79.8923 14° North  Level FlightAware Approximate
09:18PM 33.0725 -79.9850 14° North 317 365 21,500  Level Jacksonville Center
09:19PM 33.4579 -79.8605 14° North  Level FlightAware Approximate
09:19PM 33.1700 -79.9594 12° North 340 391 24,500  Level Jacksonville Center
09:20PM 33.2717 -79.9311 13° North 360 414 27,200 2,700 Climbing Jacksonville Center
09:21PM 33.3753 -79.9028 13° North 367 422 30,000 2,460 Climbing Jacksonville Center
09:22PM 33.4789 -79.8719 14° North 373 429 32,200 2,100 Climbing Jacksonville Center
09:23PM 33.5867 -79.8433 12° North 383 441 34,300 1,800 Climbing Jacksonville Center
09:24PM 33.6967 -79.8147 12° North 394 453 35,900 1,620 Climbing Jacksonville Center
09:25PM 33.8083 -79.7783 15° North 399 459 37,600 1,800 Climbing Jacksonville Center
09:26PM 33.9203 -79.7492 12° North 404 465 39,500 1,620 Climbing Jacksonville Center
09:27PM 34.0233 -79.6981 22° Northeast 409 471 40,900 720 Climbing Jacksonville Center
09:28PM 34.1328 -79.6464 21° North 409 471 41,000  Climbing Jacksonville Center
09:30PM 34.4144 -79.5064 22° Northeast 427 491 41,000  Level Washington Center
09:31PM 34.5286 -79.4564 20° North 427 491 41,000  Level Washington Center
09:32PM 34.6411 -79.3986 23° Northeast 432 497 41,000  Level Washington Center
09:33PM 34.7517 -79.3331 26° Northeast 432 497 41,000  Level Washington Center
09:34PM 34.8622 -79.2672 26° Northeast 432 497 41,000  Level Washington Center
09:35PM 34.9728 -79.1989 27° Northeast 432 497 41,000  Level Washington Center
09:36PM 35.0792 -79.1325 27° Northeast 432 497 41,000  Level Washington Center
09:37PM 35.1853 -79.0686 26° Northeast 437 503 41,000  Level Washington Center
09:38PM 35.2939 -78.9994 27° Northeast 437 503 41,000  Level Washington Center
09:39PM 35.4022 -78.9328 27° Northeast 437 503 41,000  Level Washington Center
09:40PM 35.5103 -78.8658 27° Northeast 437 503 41,000  Level Washington Center
09:41PM 35.6228 -78.7964 27° Northeast 437 503 41,000  Level Washington Center
09:42PM 35.7333 -78.7267 27° Northeast 437 503 41,000  Level Washington Center
09:43PM 35.8436 -78.6542 28° Northeast 437 503 41,000  Level Washington Center
09:44PM 35.9328 -78.5958 28° Northeast 442 509 41,000  Level Washington Center
09:45PM 36.0536 -78.5208 27° Northeast 442 509 41,000  Level Washington Center
09:46PM 36.1639 -78.4478 28° Northeast 442 509 41,000  Level Washington Center
09:47PM 36.2761 -78.3772 27° Northeast 442 509 41,000  Level Washington Center
09:48PM 36.3883 -78.3036 28° Northeast 442 509 41,000  Level Washington Center
09:49PM 36.4983 -78.2325 27° Northeast 442 509 41,000  Level Washington Center
09:50PM 36.6064 -78.1611 28° Northeast 442 509 41,000  Level Washington Center
09:51PM 36.7122 -78.0897 28° Northeast 437 503 41,000  Level Washington Center
09:52PM 36.8222 -78.0181 28° Northeast 437 503 41,000  Level Washington Center
09:53PM 36.9342 -77.9433 28° Northeast 437 503 41,000  Level Washington Center
09:54PM 37.0403 -77.8531 34° Northeast 449 517 41,000  Level Washington Center
09:55PM 37.1461 -77.7675 33° Northeast 455 524 41,000  Level Washington Center
09:56PM 37.2519 -77.6819 33° Northeast 455 524 41,000  Level Washington Center
09:57PM 37.3578 -77.5958 33° Northeast 455 524 41,000  Level Washington Center
09:58PM 37.4675 -77.5072 33° Northeast 455 524 41,000  Level Washington Center
09:59PM 37.5733 -77.4208 33° Northeast 455 524 41,000 -120 Level Washington Center
10:00PM 37.6808 -77.3314 33° Northeast 455 524 40,800 -720 Descending Washington Center
10:01PM 37.7864 -77.2394 35° Northeast 455 524 39,600 -1,140 Descending Washington Center
10:02PM 37.8919 -77.1522 33° Northeast 455 524 38,500 -1,140 Descending Washington Center
10:03PM 37.9911 -77.0700 33° Northeast 442 509 37,400 -780 Descending Washington Center
10:04PM 38.0900 -76.9875 33° Northeast 436 502 37,000 -240 Descending Washington Center
10:05PM 38.1911 -76.9022 34° Northeast 431 496 37,000 -660 Level Washington Center
10:06PM 38.2942 -76.8167 33° Northeast 431 496 35,700 -1,320 Descending Washington Center
10:07PM 38.3867 -76.7386 33° Northeast 417 480 34,400 -1,380 Descending Washington Center
10:08PM 38.4856 -76.6553 33° Northeast 417 480 33,000 -2,100 Descending Washington Center
10:09PM 38.5861 -76.5717 33° Northeast 422 486 30,300 -3,000 Descending Washington Center
10:10PM 38.6911 -76.4828 33° Northeast 428 493 27,200 -2,160 Descending Washington Center
10:11PM 38.7958 -76.4147 27° Northeast 428 493 26,000 -600 Descending Washington Center
10:12PM 38.9025 -76.3597 22° Northeast 415 478 26,000  Level Washington Center
10:13PM 39.0072 -76.3047 22° Northeast 410 472 26,000 -780 Level Washington Center
10:14PM 39.1136 -76.2550 20° North 405 466 24,500 -1,020 Descending Washington Center
10:15PM 39.2122 -76.1594 37° Northeast 405 466 24,000 -360 Descending Washington Center
10:16PM 39.3042 -76.0664 38° Northeast 419 482 23,800 -1,560 Descending Washington Center
10:19PM 39.5333 -75.8500 36° Northeast 403 464 18,800 -2,100 Descending Philadelphia TRACON
10:20PM 39.6167 -75.7667 38° Northeast 395 455 16,800 -1,980 Descending Philadelphia TRACON
10:21PM 39.7000 -75.6833 38° Northeast 386 444 14,900 -1,920 Descending Philadelphia TRACON
10:22PM 39.7833 -75.6000 38° Northeast 378 435 13,000 -960 Descending Philadelphia TRACON
10:23PM 39.8667 -75.5333 32° Northeast 373 429 13,000  Level Philadelphia TRACON
10:24PM 39.9500 -75.4500 37° Northeast 366 421 13,000  Level Philadelphia TRACON
10:25PM 40.0500 -75.3667 33° Northeast 362 417 13,000  Level Philadelphia TRACON
10:26PM 40.1167 -75.3000 37° Northeast 362 417 13,000 -600 Level Philadelphia TRACON
10:27PM 40.2000 -75.2167 37° Northeast 332 382 11,900 -1,380 Descending Philadelphia TRACON
10:29PM 40.3333 -75.0833 37° Northeast 290 334 8,900 -1,560 Descending New York TRACON
10:30PM 40.3833 -75.0167 45° Northeast 283 326 7,300 -1,560 Descending New York TRACON
10:31PM 40.4500 -74.9500 37° Northeast 279 321 5,800 -1,500 Descending New York TRACON
10:32PM 40.5000 -74.8667 52° Northeast 275 316 4,300 -900 Descending New York TRACON
10:33PM 40.5500 -74.7833 52° Northeast 273 314 4,000 -180 Descending New York TRACON
10:34PM 40.6000 -74.7333 37° Northeast 266 306 4,000  Level New York TRACON
10:35PM 40.6667 -74.6833 30° Northeast 265 305 4,000  Level New York TRACON
10:36PM 40.7333 -74.6333 30° Northeast 271 312 4,000 -480 Level New York TRACON
10:37PM 40.7833 -74.5500 52° Northeast 272 313 3,100 -540 Descending New York TRACON
10:38PM 40.8333 -74.4833 45° Northeast 274 315 3,000 -60 Descending New York TRACON
10:39PM 40.8833 -74.4000 52° Northeast 269 310 3,000  Level New York TRACON
10:40PM 40.9333 -74.3333 45° Northeast 271 312 3,000  Level New York TRACON
10:41PM 40.9500 -74.2500 75° East 247 284 3,000 -420 Level New York TRACON
10:42PM 40.9833 -74.1833 56° Northeast 230 265 2,300 -540 Descending New York TRACON
10:43PM 40.9833 -74.0833 90° East 219 252 2,000 -180 Descending New York TRACON
10:44PM 40.9500 -74.0500 143° Southeast 185 213 2,000 -480 Level New York TRACON
10:45PM 40.9167 -74.0500 180° South 151 174 1,200 -840 Descending New York TRACON
10:46PM 40.8833 -74.0500 180° South 120 138 500 -720 Descending New York TRACON
10:48PM 40.8500 -74.0500 180° South  Level FlightAware Approximate